Time;durP1;ratioP1;P1;durP2;ratioP2;P2;SDS_P1;SDS_P2;PMS_P1;PMS_P2;Temp;Humidity;BMP_temperature;BMP_pressure;BME280_temperature;BME280_humidity;BME280_pressure;Samples;Min_cycle;Max_cycle;Signal;HPM_P1;HPM_P2
2022/01/05 00:02:18;;;;;;;9.75;2.80;;;3.40;99.90;;;;;;5019287;28;20518;-58
2022/01/05 00:04:44;;;;;;;10.10;2.58;;;3.30;99.90;;;;;;5011042;28;20058;-59
2022/01/05 00:07:11;;;;;;;15.23;3.10;;;3.30;99.90;;;;;;5010791;28;20036;-59
2022/01/05 00:09:37;;;;;;;10.10;3.72;;;3.20;99.90;;;;;;5010184;28;20033;-59
2022/01/05 00:12:02;;;;;;;8.27;2.78;;;3.30;99.90;;;;;;5009943;28;20034;-59
2022/01/05 00:14:28;;;;;;;11.65;2.63;;;3.20;99.90;;;;;;5009195;28;20037;-59
2022/01/05 00:16:54;;;;;;;9.15;3.30;;;3.10;99.90;;;;;;5010626;28;20665;-59
2022/01/05 00:19:19;;;;;;;12.32;3.30;;;3.00;99.90;;;;;;5010630;28;20025;-57
2022/01/05 00:21:45;;;;;;;7.68;2.70;;;3.00;99.90;;;;;;5014342;28;20049;-59
2022/01/05 00:24:10;;;;;;;7.78;3.40;;;2.90;99.90;;;;;;5006017;28;20553;-59
2022/01/05 00:26:36;;;;;;;8.10;2.72;;;2.90;99.90;;;;;;5010766;28;20656;-58
2022/01/05 00:29:03;;;;;;;9.13;3.47;;;2.90;99.90;;;;;;5008721;28;20517;-59
2022/01/05 00:31:28;;;;;;;7.43;3.50;;;2.90;99.90;;;;;;5009769;28;20029;-59
2022/01/05 00:33:55;;;;;;;9.45;2.75;;;2.90;99.90;;;;;;5008943;28;20087;-59
2022/01/05 00:36:20;;;;;;;6.13;2.20;;;2.80;99.90;;;;;;5013340;28;20022;-59
2022/01/05 00:38:46;;;;;;;5.07;2.25;;;2.80;99.90;;;;;;5009236;28;20034;-59
2022/01/05 00:41:12;;;;;;;6.53;3.05;;;2.70;99.90;;;;;;5008884;28;20103;-58
2022/01/05 00:43:38;;;;;;;4.30;1.65;;;2.60;99.90;;;;;;5009067;28;20060;-59
2022/01/05 00:46:04;;;;;;;4.88;2.17;;;2.50;99.90;;;;;;5008865;28;20483;-58
2022/01/05 00:48:32;;;;;;;3.00;1.63;;;2.40;99.90;;;;;;5009463;28;20037;-59
2022/01/05 00:51:00;;;;;;;3.95;1.50;;;2.40;99.90;;;;;;5010167;28;20661;-58
2022/01/05 00:53:26;;;;;;;6.38;1.42;;;2.40;99.90;;;;;;5009131;28;20018;-58
2022/01/05 00:55:52;;;;;;;5.40;1.20;;;2.30;99.90;;;;;;4996321;28;20109;-58
2022/01/05 00:58:18;;;;;;;2.53;1.73;;;2.30;99.90;;;;;;5009511;28;20025;-59
2022/01/05 01:00:43;;;;;;;4.35;1.30;;;2.30;99.90;;;;;;5008459;28;20057;-57
2022/01/05 01:03:09;;;;;;;2.75;1.00;;;2.20;99.90;;;;;;5009352;28;20108;-58
2022/01/05 01:05:34;;;;;;;3.33;1.50;;;2.10;99.90;;;;;;5011716;28;20109;-59
2022/01/05 01:08:00;;;;;;;2.72;1.48;;;2.10;99.90;;;;;;5012846;28;20045;-58
2022/01/05 01:10:26;;;;;;;3.33;1.60;;;2.10;99.90;;;;;;5016993;28;20063;-59
2022/01/05 01:12:52;;;;;;;3.00;1.50;;;2.00;99.90;;;;;;5010348;28;20104;-59
2022/01/05 01:15:18;;;;;;;2.95;1.70;;;2.00;99.90;;;;;;5009408;28;20443;-58
2022/01/05 01:17:44;;;;;;;2.58;1.63;;;2.00;99.90;;;;;;5009557;28;20566;-57
2022/01/05 01:20:10;;;;;;;4.03;2.28;;;1.90;99.90;;;;;;5006937;28;20030;-59
2022/01/05 01:22:36;;;;;;;4.78;2.53;;;1.90;99.90;;;;;;5008286;28;20026;-59
2022/01/05 01:25:04;;;;;;;5.20;2.35;;;1.90;99.90;;;;;;5003283;28;20054;-57
2022/01/05 01:27:29;;;;;;;6.60;3.70;;;1.90;99.90;;;;;;5009492;28;20027;-57
2022/01/05 01:29:55;;;;;;;5.18;3.00;;;2.00;99.90;;;;;;5008197;28;20092;-58
2022/01/05 01:32:21;;;;;;;6.40;3.90;;;2.00;99.90;;;;;;5002440;28;20488;-60
2022/01/05 01:34:46;;;;;;;8.27;3.97;;;2.10;99.90;;;;;;5009241;28;20068;-60
2022/01/05 01:37:12;;;;;;;8.73;4.00;;;2.00;99.90;;;;;;5010302;28;20072;-60
2022/01/05 01:39:38;;;;;;;6.05;3.78;;;2.10;99.90;;;;;;5013315;28;20072;-59
2022/01/05 01:42:03;;;;;;;8.20;3.95;;;2.00;99.90;;;;;;5013722;28;20112;-59
2022/01/05 01:44:29;;;;;;;5.80;4.20;;;2.00;99.90;;;;;;5013122;28;20037;-60
2022/01/05 01:46:55;;;;;;;6.47;3.53;;;2.00;99.90;;;;;;5015389;28;20593;-60
2022/01/05 01:49:20;;;;;;;7.20;3.60;;;2.00;99.90;;;;;;5012875;28;20173;-60
2022/01/05 01:51:46;;;;;;;7.15;3.10;;;2.00;99.90;;;;;;5013127;28;20453;-60
2022/01/05 01:54:12;;;;;;;10.77;3.75;;;2.10;99.90;;;;;;5012422;28;20038;-59
2022/01/05 01:56:38;;;;;;;6.68;3.55;;;2.10;99.90;;;;;;5014053;28;20090;-58
2022/01/05 01:59:05;;;;;;;6.95;3.55;;;2.20;99.90;;;;;;5016817;28;20030;-59
2022/01/05 02:01:30;;;;;;;6.78;3.90;;;2.20;99.90;;;;;;5011761;28;20022;-60
2022/01/05 02:03:56;;;;;;;6.97;4.20;;;2.20;99.90;;;;;;4991964;28;20057;-59
2022/01/05 02:06:22;;;;;;;12.30;4.32;;;2.20;99.90;;;;;;5014864;28;20026;-58
2022/01/05 02:08:48;;;;;;;10.45;5.07;;;2.20;99.90;;;;;;5016228;28;20080;-60
2022/01/05 02:11:14;;;;;;;12.05;4.00;;;2.30;99.90;;;;;;5009453;28;20054;-60
2022/01/05 02:13:40;;;;;;;16.38;4.10;;;2.30;99.90;;;;;;5010622;28;20697;-59
2022/01/05 02:16:07;;;;;;;11.02;4.47;;;2.30;99.90;;;;;;5011643;28;20053;-60
2022/01/05 02:21:13;;;;;;;5.82;4.03;;;2.30;99.90;;;;;;5014070;28;20570;-60
2022/01/05 02:23:39;;;;;;;12.30;4.38;;;2.30;99.90;;;;;;5019264;28;20163;-60
2022/01/05 02:26:07;;;;;;;6.85;3.97;;;2.40;99.90;;;;;;5012555;28;20101;-59
2022/01/05 02:28:32;;;;;;;15.48;4.97;;;2.50;99.90;;;;;;5012215;28;20026;-60
2022/01/05 02:30:58;;;;;;;12.65;5.78;;;2.50;99.90;;;;;;5008633;28;20514;-58
2022/01/05 02:33:24;;;;;;;13.65;7.13;;;2.50;99.90;;;;;;5013962;28;20040;-59
2022/01/05 02:35:51;;;;;;;16.08;7.95;;;2.50;99.90;;;;;;5012343;28;20050;-59
2022/01/05 02:38:21;;;;;;;20.88;7.80;;;2.50;99.90;;;;;;5001899;28;20491;-60
2022/01/05 02:40:48;;;;;;;13.10;8.00;;;2.50;99.90;;;;;;5005513;28;20024;-58
2022/01/05 02:43:13;;;;;;;18.50;7.88;;;2.50;99.90;;;;;;5010745;28;20034;-59
2022/01/05 02:45:39;;;;;;;14.05;7.93;;;2.50;99.90;;;;;;5012217;28;20045;-56
2022/01/05 02:48:05;;;;;;;15.80;8.27;;;2.60;99.90;;;;;;5011594;28;20480;-58
2022/01/05 02:50:31;;;;;;;21.10;8.40;;;2.50;99.90;;;;;;5011952;28;20033;-58
2022/01/05 02:52:56;;;;;;;20.38;7.93;;;2.50;99.90;;;;;;5011588;28;20677;-60
2022/01/05 02:55:22;;;;;;;14.73;7.15;;;2.60;99.90;;;;;;5002014;28;20456;-60
2022/01/05 02:57:48;;;;;;;13.80;7.03;;;2.60;99.90;;;;;;5011524;28;20092;-57
2022/01/05 03:00:15;;;;;;;20.35;8.40;;;2.60;99.90;;;;;;5010119;28;20105;-59
2022/01/05 03:02:40;;;;;;;16.38;8.68;;;2.60;99.90;;;;;;5011022;28;20018;-58
2022/01/05 03:05:07;;;;;;;24.85;9.63;;;2.60;99.90;;;;;;4993016;28;20053;-59
2022/01/05 03:07:37;;;;;;;25.58;10.35;;;2.50;99.90;;;;;;5011159;28;20033;-60
2022/01/05 03:10:04;;;;;;;25.90;10.02;;;2.50;99.90;;;;;;5011821;28;20121;-58
2022/01/05 03:12:29;;;;;;;24.33;10.90;;;2.60;99.90;;;;;;5011751;28;20109;-57
2022/01/05 03:14:55;;;;;;;18.27;9.20;;;2.60;99.90;;;;;;5011126;28;20100;-60
2022/01/05 03:17:21;;;;;;;18.58;10.05;;;2.60;99.90;;;;;;5010672;28;20061;-59
2022/01/05 03:19:46;;;;;;;19.83;10.80;;;2.60;99.90;;;;;;5011059;28;20105;-59
2022/01/05 03:22:12;;;;;;;23.77;10.63;;;2.60;99.90;;;;;;5009335;28;20026;-58
2022/01/05 03:24:38;;;;;;;19.00;9.68;;;2.70;99.90;;;;;;5005969;28;20123;-59
2022/01/05 03:27:04;;;;;;;21.02;9.75;;;2.70;99.90;;;;;;5010400;28;20022;-58
2022/01/05 03:29:29;;;;;;;19.02;10.18;;;2.70;99.90;;;;;;5007665;28;20396;-59
2022/01/05 03:31:55;;;;;;;21.65;9.80;;;2.70;99.90;;;;;;5012743;28;20041;-58
2022/01/05 03:34:21;;;;;;;23.98;10.68;;;2.70;99.90;;;;;;5010244;28;20044;-59
2022/01/05 03:36:47;;;;;;;22.20;9.80;;;2.70;99.90;;;;;;5009015;28;20539;-59
2022/01/05 03:39:12;;;;;;;19.92;9.35;;;2.70;99.90;;;;;;5008539;28;20145;-58
2022/01/05 03:41:38;;;;;;;30.48;10.75;;;2.70;99.90;;;;;;5011411;28;20105;-60
2022/01/05 03:44:05;;;;;;;30.58;8.48;;;2.70;99.90;;;;;;5008688;28;20416;-59
2022/01/05 03:46:31;;;;;;;26.48;8.05;;;2.60;99.90;;;;;;5006388;28;20038;-58
2022/01/05 03:48:57;;;;;;;27.77;8.95;;;2.60;99.90;;;;;;5007482;28;20028;-59
2022/01/05 03:51:23;;;;;;;20.13;8.40;;;2.60;99.90;;;;;;5004714;28;20479;-59
2022/01/05 03:53:48;;;;;;;19.83;7.00;;;2.60;99.90;;;;;;5010692;28;20124;-58
2022/01/05 03:56:14;;;;;;;13.90;7.53;;;2.60;99.90;;;;;;5007918;28;20048;-60
2022/01/05 03:58:39;;;;;;;23.10;7.65;;;2.60;99.90;;;;;;5007815;28;20038;-60
2022/01/05 04:01:05;;;;;;;21.27;6.68;;;2.50;99.90;;;;;;5002123;28;20022;-59
2022/01/05 04:03:31;;;;;;;20.65;6.43;;;2.50;99.90;;;;;;4991185;28;28565;-58
2022/01/05 04:05:56;;;;;;;19.92;6.40;;;2.50;99.90;;;;;;5010370;28;20037;-59
2022/01/05 04:08:22;;;;;;;18.80;7.03;;;2.40;99.90;;;;;;5009991;28;20125;-59
2022/01/05 04:10:48;;;;;;;20.00;6.18;;;2.30;99.90;;;;;;5008099;28;20065;-57
2022/01/05 04:13:15;;;;;;;17.85;6.50;;;2.30;99.90;;;;;;5009355;28;20022;-59
2022/01/05 04:15:40;;;;;;;20.00;6.78;;;2.20;99.90;;;;;;5010186;28;20026;-58
2022/01/05 04:18:06;;;;;;;23.40;7.13;;;2.10;99.90;;;;;;5008818;28;20095;-59
2022/01/05 04:20:33;;;;;;;17.42;6.78;;;2.00;99.90;;;;;;5015353;28;20022;-60
2022/01/05 04:22:58;;;;;;;20.35;7.65;;;2.00;99.90;;;;;;5006753;28;20692;-60
2022/01/05 04:25:24;;;;;;;19.38;6.88;;;1.90;99.90;;;;;;5007511;28;20061;-58
2022/01/05 04:27:50;;;;;;;25.88;7.55;;;1.80;99.90;;;;;;5009650;28;20037;-58
2022/01/05 04:30:16;;;;;;;26.55;8.88;;;1.80;99.90;;;;;;5010104;28;20037;-57
2022/01/05 04:32:42;;;;;;;23.48;7.15;;;1.70;99.90;;;;;;5009125;28;20535;-59
2022/01/05 04:35:12;;;;;;;27.35;8.27;;;1.70;99.90;;;;;;5010260;28;20392;-57
2022/01/05 04:37:38;;;;;;;27.67;8.70;;;1.70;99.90;;;;;;4997574;28;20026;-57
2022/01/05 04:40:04;;;;;;;24.33;8.02;;;1.70;99.90;;;;;;4997503;28;20430;-58
2022/01/05 04:42:30;;;;;;;25.73;7.32;;;1.70;99.90;;;;;;5009685;28;20026;-59
2022/01/05 04:44:55;;;;;;;24.85;7.78;;;1.70;99.90;;;;;;5009466;28;20033;-59
2022/01/05 04:47:22;;;;;;;17.20;7.90;;;1.70;99.90;;;;;;5009250;28;20065;-57
2022/01/05 04:49:48;;;;;;;24.92;7.93;;;1.60;99.90;;;;;;5009217;28;20445;-58
2022/01/05 04:52:14;;;;;;;27.80;10.23;;;1.50;99.90;;;;;;5009375;28;20545;-59
2022/01/05 04:54:39;;;;;;;21.55;8.52;;;1.50;99.90;;;;;;5007165;28;20037;-59
2022/01/05 04:57:06;;;;;;;25.05;8.60;;;1.40;99.90;;;;;;5008932;28;20042;-59
2022/01/05 04:59:32;;;;;;;29.67;8.45;;;1.40;99.90;;;;;;5008913;28;20105;-59
2022/01/05 05:01:58;;;;;;;28.48;9.30;;;1.40;99.90;;;;;;5009218;28;20484;-58
2022/01/05 05:04:24;;;;;;;20.40;8.52;;;1.40;99.90;;;;;;5002696;28;20075;-59
2022/01/05 05:06:50;;;;;;;16.05;7.05;;;1.40;99.90;;;;;;4989531;28;20046;-59
2022/01/05 05:09:16;;;;;;;23.10;7.60;;;1.30;99.90;;;;;;5006001;28;20037;-59
2022/01/05 05:11:41;;;;;;;16.75;6.38;;;1.30;99.90;;;;;;5007634;28;20030;-57
2022/01/05 05:14:08;;;;;;;30.02;7.68;;;1.20;99.90;;;;;;5008310;28;20018;-59
2022/01/05 05:16:34;;;;;;;17.60;6.88;;;1.20;99.90;;;;;;5009789;28;20056;-58
2022/01/05 05:19:00;;;;;;;25.83;7.57;;;1.20;99.90;;;;;;5007427;28;20069;-59
2022/01/05 05:21:25;;;;;;;20.05;7.22;;;1.10;99.90;;;;;;5008998;28;20392;-59
2022/01/05 05:23:51;;;;;;;22.23;6.25;;;1.10;99.90;;;;;;5007938;28;20029;-57
2022/01/05 05:26:16;;;;;;;24.45;6.28;;;1.10;99.90;;;;;;5000108;28;20030;-58
2022/01/05 05:28:42;;;;;;;24.98;7.05;;;1.10;99.90;;;;;;5002492;28;20514;-59
2022/01/05 05:31:08;;;;;;;20.73;5.53;;;1.00;99.90;;;;;;5008950;28;20111;-60
2022/01/05 05:33:33;;;;;;;27.60;9.18;;;1.00;99.90;;;;;;5007695;28;20029;-59
2022/01/05 05:35:59;;;;;;;21.13;6.63;;;0.90;99.90;;;;;;5009298;28;20033;-58
2022/01/05 05:38:24;;;;;;;23.25;6.25;;;1.00;99.90;;;;;;5001663;28;20025;-58
2022/01/05 05:40:50;;;;;;;17.73;5.60;;;0.90;99.90;;;;;;5008701;28;20129;-60
2022/01/05 05:43:16;;;;;;;25.05;6.05;;;0.90;99.90;;;;;;5008280;28;20030;-59
2022/01/05 05:45:41;;;;;;;26.80;5.95;;;0.80;99.90;;;;;;5008774;28;20037;-58
2022/01/05 05:48:07;;;;;;;23.92;6.57;;;0.90;99.90;;;;;;5005844;28;20033;-59
2022/01/05 05:50:33;;;;;;;20.05;5.90;;;0.80;99.90;;;;;;5009797;28;20550;-59
2022/01/05 05:52:59;;;;;;;32.42;6.13;;;0.90;99.90;;;;;;5009656;28;20038;-58
2022/01/05 05:55:25;;;;;;;26.30;5.00;;;0.90;99.90;;;;;;5008884;28;20038;-59
2022/01/05 05:57:50;;;;;;;21.58;4.78;;;0.90;99.90;;;;;;5009398;28;20447;-58
2022/01/05 06:00:16;;;;;;;15.43;4.65;;;1.00;99.90;;;;;;5005570;28;20026;-59
2022/01/05 06:02:42;;;;;;;21.98;4.38;;;1.00;99.90;;;;;;5006491;28;20030;-60
2022/01/05 06:05:08;;;;;;;20.02;4.88;;;1.10;99.90;;;;;;5007405;28;20056;-59
2022/01/05 06:07:33;;;;;;;25.75;5.88;;;1.10;99.90;;;;;;4992376;28;20145;-60
2022/01/05 06:09:59;;;;;;;21.67;4.35;;;1.20;99.90;;;;;;5007637;28;20684;-56
2022/01/05 06:12:25;;;;;;;19.88;3.78;;;1.20;99.90;;;;;;5009627;28;20044;-59
2022/01/05 06:14:51;;;;;;;21.90;4.10;;;1.20;99.90;;;;;;5008027;28;20033;-59
2022/01/05 06:17:17;;;;;;;16.75;4.25;;;1.30;99.90;;;;;;5009076;28;20030;-60
2022/01/05 06:19:42;;;;;;;16.67;4.40;;;1.20;99.90;;;;;;5004071;28;20027;-59
2022/01/05 06:22:08;;;;;;;15.48;4.28;;;1.30;99.90;;;;;;5004949;28;20033;-58
2022/01/05 06:24:35;;;;;;;24.10;5.00;;;1.30;99.90;;;;;;5009176;28;20195;-60
2022/01/05 06:27:01;;;;;;;62.47;18.60;;;1.30;99.90;;;;;;5011297;28;20696;-60
2022/01/05 06:29:27;;;;;;;67.85;26.13;;;1.30;99.90;;;;;;5007478;28;20033;-60
2022/01/05 06:31:52;;;;;;;45.30;13.65;;;1.30;99.90;;;;;;5010069;28;20026;-58
2022/01/05 06:34:18;;;;;;;132.70;41.88;;;1.30;99.90;;;;;;5012361;28;20106;-59
2022/01/05 06:36:43;;;;;;;46.63;15.18;;;1.30;99.90;;;;;;5009090;28;20113;-58
2022/01/05 06:39:09;;;;;;;27.05;6.78;;;1.30;99.90;;;;;;5009707;28;20052;-58
2022/01/05 06:41:35;;;;;;;33.22;8.23;;;1.40;99.90;;;;;;5012149;28;20531;-59
2022/01/05 06:44:00;;;;;;;26.25;8.45;;;1.40;99.90;;;;;;5011676;28;20022;-59
2022/01/05 06:46:26;;;;;;;24.55;5.20;;;1.40;99.90;;;;;;5012610;28;20484;-59
2022/01/05 06:48:51;;;;;;;24.67;5.30;;;1.40;99.90;;;;;;5006096;28;20530;-60
2022/01/05 06:51:17;;;;;;;22.55;6.47;;;1.40;99.90;;;;;;5006675;28;20064;-60
2022/01/05 06:53:43;;;;;;;22.95;5.70;;;1.40;99.90;;;;;;5007929;28;20030;-58
2022/01/05 06:56:08;;;;;;;20.67;4.50;;;1.40;99.90;;;;;;5009484;28;20026;-60
2022/01/05 06:58:34;;;;;;;29.58;4.55;;;1.50;99.90;;;;;;5011312;28;20029;-61
2022/01/05 07:01:00;;;;;;;20.45;4.75;;;1.50;99.90;;;;;;5011725;28;20098;-60
2022/01/05 07:03:26;;;;;;;20.08;6.13;;;1.50;99.90;;;;;;5010568;28;20148;-60
2022/01/05 07:05:51;;;;;;;20.50;6.60;;;1.50;99.90;;;;;;4997947;28;20087;-61
2022/01/05 07:08:18;;;;;;;17.23;5.38;;;1.50;99.90;;;;;;5006570;28;20103;-60
2022/01/05 07:10:43;;;;;;;17.77;6.03;;;1.50;99.90;;;;;;5020734;28;20049;-60
2022/01/05 07:13:09;;;;;;;24.55;3.97;;;1.50;99.90;;;;;;5008647;28;20487;-60
2022/01/05 07:15:35;;;;;;;16.88;4.30;;;1.60;99.90;;;;;;5011222;28;20512;-61
2022/01/05 07:18:00;;;;;;;20.88;4.50;;;1.60;99.90;;;;;;5011566;28;20036;-60
2022/01/05 07:20:26;;;;;;;25.13;3.97;;;1.60;99.90;;;;;;5009476;28;20495;-57
2022/01/05 07:22:52;;;;;;;20.10;5.85;;;1.60;99.90;;;;;;5010546;28;20089;-59
2022/01/05 07:25:17;;;;;;;23.17;5.20;;;1.60;99.90;;;;;;5007411;28;20022;-59
2022/01/05 07:27:44;;;;;;;24.15;5.93;;;1.60;99.90;;;;;;5001903;28;20035;-58
2022/01/05 07:30:10;;;;;;;26.17;6.40;;;1.60;99.90;;;;;;5012349;28;20387;-60
2022/01/05 07:32:36;;;;;;;22.60;6.78;;;1.60;99.90;;;;;;5005180;28;20030;-59
2022/01/05 07:35:03;;;;;;;38.80;6.72;;;1.70;99.90;;;;;;5009302;28;20442;-60
2022/01/05 07:37:29;;;;;;;29.25;9.05;;;1.70;99.90;;;;;;5001589;28;20022;-59
2022/01/05 07:39:54;;;;;;;24.15;7.70;;;1.70;99.90;;;;;;5006906;28;20446;-59
2022/01/05 07:42:20;;;;;;;31.92;6.80;;;1.80;99.90;;;;;;5002506;28;20543;-59
2022/01/05 07:44:46;;;;;;;31.60;10.35;;;1.80;99.90;;;;;;5005287;28;20736;-59
2022/01/05 07:47:11;;;;;;;23.77;8.35;;;1.80;99.90;;;;;;5010194;28;20041;-59
2022/01/05 07:49:38;;;;;;;34.55;5.38;;;1.80;99.90;;;;;;5004656;28;20043;-59
2022/01/05 07:52:05;;;;;;;15.85;6.32;;;1.80;99.90;;;;;;4999147;28;20140;-58
2022/01/05 07:54:32;;;;;;;18.25;5.20;;;1.80;99.90;;;;;;5009900;28;20381;-59
2022/01/05 07:56:58;;;;;;;25.80;6.18;;;1.80;99.90;;;;;;5007515;28;20022;-59
2022/01/05 07:59:24;;;;;;;23.83;6.95;;;1.90;99.90;;;;;;5008559;28;20021;-59
2022/01/05 08:01:52;;;;;;;17.52;3.95;;;1.90;99.90;;;;;;5017103;28;20022;-58
2022/01/05 08:04:20;;;;;;;22.42;5.72;;;1.90;99.90;;;;;;5017099;28;20036;-59
2022/01/05 08:06:46;;;;;;;26.30;5.90;;;1.90;99.90;;;;;;4994683;28;20118;-58
2022/01/05 08:09:12;;;;;;;27.17;7.40;;;1.90;99.90;;;;;;5017414;28;20033;-58
2022/01/05 08:11:37;;;;;;;19.67;4.75;;;2.00;99.90;;;;;;5017506;28;20029;-58
2022/01/05 08:14:03;;;;;;;20.92;5.47;;;1.90;99.90;;;;;;5026277;28;20024;-59
2022/01/05 08:16:29;;;;;;;28.30;6.03;;;2.00;99.90;;;;;;5011823;28;20030;-59
2022/01/05 08:18:55;;;;;;;26.83;6.40;;;2.00;99.90;;;;;;5023341;28;20021;-56
2022/01/05 08:21:21;;;;;;;30.10;5.63;;;2.00;99.90;;;;;;5022106;28;20029;-59
2022/01/05 08:23:48;;;;;;;26.70;8.23;;;2.10;99.90;;;;;;5016425;28;20506;-59
2022/01/05 08:26:14;;;;;;;17.83;5.95;;;2.10;99.90;;;;;;5015499;28;20471;-57
2022/01/05 08:28:40;;;;;;;12.63;3.47;;;2.10;99.90;;;;;;5016962;28;20034;-59
2022/01/05 08:31:06;;;;;;;22.42;5.32;;;2.10;99.90;;;;;;5020388;28;20121;-61
2022/01/05 08:33:31;;;;;;;20.15;5.45;;;2.10;99.90;;;;;;5021380;28;20112;-58
2022/01/05 08:35:57;;;;;;;16.58;5.57;;;2.20;99.90;;;;;;5020202;28;20029;-60
2022/01/05 08:38:23;;;;;;;27.35;7.10;;;2.20;99.90;;;;;;5014640;28;20049;-58
2022/01/05 08:40:51;;;;;;;27.42;6.05;;;2.20;99.90;;;;;;5009907;28;20029;-60
2022/01/05 08:43:17;;;;;;;23.63;6.88;;;2.30;99.90;;;;;;5009287;28;20083;-58
2022/01/05 08:45:44;;;;;;;27.35;7.22;;;2.30;99.90;;;;;;5008959;28;20105;-59
2022/01/05 08:48:10;;;;;;;16.35;5.20;;;2.30;99.90;;;;;;5008419;28;20026;-60
2022/01/05 08:50:37;;;;;;;21.40;5.68;;;2.30;99.90;;;;;;5010502;28;20026;-58
2022/01/05 08:53:03;;;;;;;25.52;6.50;;;2.40;99.90;;;;;;5008615;28;20531;-59
2022/01/05 08:55:49;;;;;;;7.55;3.50;;;2.40;99.90;;;;;;5006853;28;20030;-59
2022/01/05 08:58:17;;;;;;;20.80;4.90;;;2.40;99.90;;;;;;5011061;28;20046;-58
2022/01/05 09:00:43;;;;;;;26.65;5.22;;;2.40;99.90;;;;;;5015820;28;20418;-59
2022/01/05 09:03:12;;;;;;;20.45;7.13;;;2.40;99.90;;;;;;5010960;28;20017;-58
2022/01/05 09:05:38;;;;;;;18.65;4.93;;;2.40;99.90;;;;;;5019218;28;20026;-58
2022/01/05 09:08:03;;;;;;;26.20;5.78;;;2.50;99.90;;;;;;4993104;28;20688;-59
2022/01/05 09:10:29;;;;;;;19.80;6.80;;;2.50;99.90;;;;;;5007863;28;20029;-59
2022/01/05 09:12:56;;;;;;;46.72;14.57;;;2.50;99.90;;;;;;5008669;28;20029;-60
2022/01/05 09:15:22;;;;;;;44.67;12.65;;;2.50;99.90;;;;;;5008366;28;20018;-59
2022/01/05 09:17:47;;;;;;;54.00;12.23;;;2.60;99.90;;;;;;5009317;28;20487;-59
2022/01/05 09:20:13;;;;;;;26.88;8.25;;;2.70;99.90;;;;;;5006785;28;20180;-60
2022/01/05 09:22:39;;;;;;;26.38;8.45;;;2.70;99.90;;;;;;5009118;28;20466;-59
2022/01/05 09:25:10;;;;;;;15.15;4.63;;;2.70;99.90;;;;;;5009104;28;20020;-60
2022/01/05 09:27:37;;;;;;;33.10;9.48;;;2.60;99.90;;;;;;5009449;28;20115;-60
2022/01/05 09:30:05;;;;;;;24.63;7.00;;;2.70;99.90;;;;;;5008925;28;20040;-59
2022/01/05 09:32:31;;;;;;;19.25;5.57;;;2.70;99.90;;;;;;5009444;28;20037;-60
2022/01/05 09:34:57;;;;;;;25.33;6.80;;;2.80;99.90;;;;;;5007574;28;20018;-60
2022/01/05 09:37:27;;;;;;;17.92;6.13;;;2.80;99.90;;;;;;5008791;28;20022;-60
2022/01/05 09:42:40;;;;;;;25.13;7.22;;;2.80;99.90;;;;;;5005537;28;20033;-60
2022/01/05 09:45:15;;;;;;;17.20;6.18;;;2.80;99.90;;;;;;5008702;28;20113;-59
2022/01/05 09:48:03;;;;;;;15.98;4.60;;;2.80;99.90;;;;;;5008554;28;20038;-59
2022/01/05 09:50:30;;;;;;;25.25;7.78;;;2.90;99.90;;;;;;5008416;28;20052;-59
2022/01/05 09:52:56;;;;;;;13.93;5.53;;;2.90;99.90;;;;;;5014740;28;20423;-59
2022/01/05 09:55:23;;;;;;;16.73;4.18;;;3.00;99.90;;;;;;5016402;28;20032;-60
2022/01/05 09:57:49;;;;;;;22.77;6.32;;;2.90;99.90;;;;;;5015896;28;20167;-59
2022/01/05 10:00:16;;;;;;;11.13;4.00;;;3.00;99.90;;;;;;5024880;28;20018;-59
2022/01/05 10:02:43;;;;;;;9.65;3.58;;;3.00;99.90;;;;;;5014869;28;20033;-58
2022/01/05 10:05:13;;;;;;;17.15;3.97;;;3.10;99.90;;;;;;5013412;28;20129;-58
2022/01/05 10:07:41;;;;;;;12.55;3.25;;;3.20;99.90;;;;;;4991854;28;20049;-59
2022/01/05 10:10:11;;;;;;;20.85;3.80;;;3.10;99.90;;;;;;5007150;28;20022;-59
2022/01/05 10:12:37;;;;;;;19.98;3.92;;;3.20;99.90;;;;;;5008119;28;20387;-59
2022/01/05 10:15:03;;;;;;;21.23;4.50;;;3.30;99.90;;;;;;5010506;28;20029;-59
2022/01/05 10:17:31;;;;;;;18.33;3.35;;;3.30;99.90;;;;;;5009835;28;20029;-59
2022/01/05 10:20:04;;;;;;;20.45;5.78;;;3.30;99.90;;;;;;5012050;28;20400;-59
2022/01/05 10:22:32;;;;;;;37.38;10.65;;;3.20;99.90;;;;;;5012113;28;20149;-59
2022/01/05 10:25:20;;;;;;;21.60;3.80;;;3.20;99.90;;;;;;5010329;28;20064;-58
2022/01/05 10:28:03;;;;;;;61.95;24.65;;;3.20;99.90;;;;;;5011887;28;20112;-59
2022/01/05 10:30:34;;;;;;;13.68;4.32;;;3.20;99.90;;;;;;5005272;28;20033;-60
2022/01/05 10:33:01;;;;;;;17.92;5.50;;;3.20;99.90;;;;;;5011118;28;20177;-60
2022/01/05 10:35:27;;;;;;;25.92;5.82;;;3.30;99.90;;;;;;5012302;28;20034;-59
2022/01/05 10:37:57;;;;;;;9.88;3.40;;;3.30;99.90;;;;;;5008688;28;20572;-59
2022/01/05 10:40:23;;;;;;;20.13;4.75;;;3.30;99.90;;;;;;5010847;28;20036;-59
2022/01/05 10:43:05;;;;;;;21.60;4.22;;;3.40;99.90;;;;;;5011506;28;20026;-58
2022/01/05 10:45:42;;;;;;;13.05;3.67;;;3.40;99.90;;;;;;5008494;28;20123;-59
2022/01/05 10:48:16;;;;;;;18.25;3.13;;;3.40;99.90;;;;;;5011209;28;20040;-59
2022/01/05 10:50:43;;;;;;;20.75;6.20;;;3.40;99.90;;;;;;5007837;28;20042;-60
2022/01/05 10:53:13;;;;;;;11.63;3.92;;;3.50;99.90;;;;;;5003007;28;20391;-60
2022/01/05 10:55:42;;;;;;;14.90;5.07;;;3.40;99.90;;;;;;5010888;28;20095;-60
2022/01/05 10:58:10;;;;;;;28.75;8.18;;;3.40;99.90;;;;;;5009557;28;20026;-60
2022/01/05 11:00:43;;;;;;;27.92;7.10;;;3.40;99.90;;;;;;5011408;28;20391;-60
2022/01/05 11:03:35;;;;;;;21.67;6.78;;;3.40;99.90;;;;;;5011187;28;20053;-60
2022/01/05 11:06:04;;;;;;;18.58;6.00;;;3.40;99.90;;;;;;5010352;28;20033;-59
2022/01/05 11:08:32;;;;;;;24.05;6.95;;;3.40;99.90;;;;;;4985396;28;20095;-60
2022/01/05 11:10:58;;;;;;;25.13;6.88;;;3.40;99.90;;;;;;5008526;28;20491;-60
2022/01/05 11:13:26;;;;;;;20.05;6.07;;;3.50;99.90;;;;;;5010638;28;20045;-60
2022/01/05 11:15:57;;;;;;;20.60;6.35;;;3.50;99.90;;;;;;5011722;28;20030;-59
2022/01/05 11:18:24;;;;;;;24.13;6.75;;;3.50;99.90;;;;;;5003942;28;20037;-60
2022/01/05 11:21:02;;;;;;;20.55;4.97;;;3.50;99.90;;;;;;5011072;28;20064;-59
2022/01/05 11:23:33;;;;;;;20.13;5.97;;;3.60;99.90;;;;;;5000535;28;20037;-59
2022/01/05 11:26:00;;;;;;;14.02;5.35;;;3.80;99.90;;;;;;5009293;28;20022;-58
2022/01/05 11:28:28;;;;;;;20.27;5.53;;;3.80;99.90;;;;;;5010188;28;20149;-60
2022/01/05 11:30:56;;;;;;;15.07;5.47;;;3.80;99.90;;;;;;5011280;28;20061;-60
2022/01/05 11:33:25;;;;;;;10.60;3.50;;;3.80;99.90;;;;;;5008661;28;20034;-60
2022/01/05 11:35:51;;;;;;;18.83;4.95;;;3.80;99.90;;;;;;5007807;28;20546;-60
2022/01/05 11:38:17;;;;;;;18.35;5.32;;;3.90;99.90;;;;;;5001292;28;20132;-61
2022/01/05 11:40:52;;;;;;;15.68;3.97;;;3.80;99.90;;;;;;5011017;28;20022;-60
2022/01/05 11:43:35;;;;;;;23.65;4.63;;;3.80;99.90;;;;;;5010186;28;20025;-59
2022/01/05 11:46:15;;;;;;;18.20;4.78;;;3.80;99.90;;;;;;5003437;28;20026;-59
2022/01/05 11:49:00;;;;;;;12.35;3.90;;;3.80;99.90;;;;;;5009913;28;20511;-60
2022/01/05 11:51:45;;;;;;;10.27;3.53;;;3.80;99.90;;;;;;5010558;28;20033;-60
2022/01/05 11:54:32;;;;;;;18.17;5.88;;;3.80;99.90;;;;;;5007623;28;20229;-60
2022/01/05 11:57:09;;;;;;;20.83;4.05;;;3.80;99.90;;;;;;5003645;28;20033;-59
2022/01/05 11:59:42;;;;;;;20.48;4.38;;;3.80;99.90;;;;;;5010344;28;20040;-60
2022/01/05 12:02:17;;;;;;;15.83;4.37;;;3.90;99.90;;;;;;5002094;28;20025;-59
2022/01/05 12:04:56;;;;;;;17.92;5.10;;;3.90;99.90;;;;;;5009656;28;20108;-59
2022/01/05 12:07:43;;;;;;;12.15;4.43;;;4.00;99.90;;;;;;5010804;28;20049;-58
2022/01/05 12:10:23;;;;;;;14.73;4.07;;;3.90;99.90;;;;;;4990809;28;20057;-59
2022/01/05 12:12:59;;;;;;;12.52;4.10;;;4.00;99.90;;;;;;4996849;28;20030;-60
2022/01/05 12:15:57;;;;;;;20.77;4.85;;;4.10;99.90;;;;;;5004264;28;20065;-59
2022/01/05 12:18:26;;;;;;;18.00;4.25;;;4.00;99.90;;;;;;5000168;28;20052;-59
2022/01/05 12:20:52;;;;;;;12.10;4.18;;;4.10;99.90;;;;;;5006192;28;20488;-60
2022/01/05 12:23:24;;;;;;;12.05;3.90;;;4.10;99.90;;;;;;5008765;28;20095;-60
2022/01/05 12:26:10;;;;;;;28.30;5.28;;;4.10;99.90;;;;;;5008514;28;20022;-60
2022/01/05 12:28:38;;;;;;;21.70;4.22;;;4.10;99.90;;;;;;5001283;28;20034;-61
2022/01/05 12:31:06;;;;;;;15.30;4.00;;;4.10;99.90;;;;;;5010271;28;20454;-61
2022/01/05 12:33:51;;;;;;;20.48;4.45;;;4.10;99.90;;;;;;5004783;28;20096;-58
2022/01/05 12:36:38;;;;;;;14.65;3.67;;;4.20;99.90;;;;;;5007506;28;20036;-60
2022/01/05 12:39:07;;;;;;;18.15;4.32;;;4.20;99.90;;;;;;5007988;28;20052;-60
2022/01/05 12:41:43;;;;;;;79.05;29.88;;;4.10;99.90;;;;;;5004751;28;20022;-60
2022/01/05 12:44:15;;;;;;;30.25;9.70;;;4.10;99.90;;;;;;5010277;28;20041;-60
2022/01/05 12:46:43;;;;;;;16.00;4.45;;;4.20;99.90;;;;;;4997600;28;20081;-59
2022/01/05 12:49:22;;;;;;;14.60;3.25;;;4.20;99.90;;;;;;5003017;28;20639;-61
2022/01/05 12:52:06;;;;;;;17.88;5.53;;;4.20;99.90;;;;;;5007277;28;20087;-58
2022/01/05 12:54:52;;;;;;;14.52;3.97;;;4.30;99.90;;;;;;5009510;28;20574;-59
2022/01/05 12:57:22;;;;;;;17.17;4.15;;;4.30;99.90;;;;;;5009800;28;20026;-60